createdAt,value
2023-04-27T00:02:12.966Z,99234.00
2023-04-27T00:04:39.616Z,99234.59
2023-04-27T00:07:06.063Z,99242.75
2023-04-27T00:09:32.455Z,99240.66
2023-04-27T00:11:58.885Z,99236.63
2023-04-27T00:14:25.195Z,99245.59
2023-04-27T00:16:51.535Z,99236.94
2023-04-27T00:19:17.965Z,99236.44
2023-04-27T00:21:44.350Z,99235.94
2023-04-27T00:24:10.681Z,99230.00
2023-04-27T00:26:37.036Z,99231.44
2023-04-27T00:29:03.518Z,99237.97
2023-04-27T00:31:29.942Z,99239.88
2023-04-27T00:33:56.388Z,99238.09
2023-04-27T00:36:22.812Z,99238.09
2023-04-27T00:38:49.180Z,99239.78
2023-04-27T00:41:15.571Z,99237.16
2023-04-27T00:43:41.960Z,99241.81
2023-04-27T00:46:08.359Z,99245.94
2023-04-27T00:48:34.825Z,99241.41
2023-04-27T00:51:01.155Z,99246.34
2023-04-27T00:53:27.494Z,99248.56
2023-04-27T00:55:53.847Z,99245.63
2023-04-27T00:58:21.865Z,99245.97
2023-04-27T01:00:48.204Z,99252.78
2023-04-27T01:03:14.704Z,99250.69
2023-04-27T01:05:43.445Z,99248.56
2023-04-27T01:08:10.059Z,99257.31
2023-04-27T01:10:36.742Z,99249.00
2023-04-27T01:13:03.252Z,99251.47
2023-04-27T01:15:30.537Z,99253.19
2023-04-27T01:17:57.024Z,99247.25
2023-04-27T01:20:23.395Z,99254.09
2023-04-27T01:22:49.713Z,99251.97
2023-04-27T01:25:16.069Z,99254.19
2023-04-27T01:27:42.422Z,99264.53
2023-04-27T01:30:10.544Z,99271.09
2023-04-27T01:32:36.969Z,99262.44
2023-04-27T01:35:03.383Z,99268.47
2023-04-27T01:37:29.768Z,99269.84
2023-04-27T01:39:56.127Z,99263.09
2023-04-27T01:42:22.467Z,99267.19
2023-04-27T01:44:48.846Z,99267.00
2023-04-27T01:47:15.196Z,99268.41
2023-04-27T01:49:41.578Z,99265.19
2023-04-27T01:52:07.930Z,99259.53
2023-04-27T01:54:34.346Z,99268.28
2023-04-27T01:57:00.662Z,99263.16
2023-04-27T01:59:26.973Z,99266.47
2023-04-27T02:01:53.388Z,99267.88
2023-04-27T02:04:19.842Z,99267.16
2023-04-27T02:06:46.284Z,99268.16
2023-04-27T02:09:13.053Z,99266.97
2023-04-27T02:11:40.226Z,99272.03
2023-04-27T02:14:06.928Z,99269.72
2023-04-27T02:16:33.395Z,99272.03
2023-04-27T02:19:00.821Z,99271.47
2023-04-27T02:21:27.125Z,99268.38
2023-04-27T02:23:53.507Z,99260.63
2023-04-27T02:26:19.810Z,99265.66
2023-04-27T02:28:46.254Z,99263.97
2023-04-27T02:31:13.080Z,99269.09
2023-04-27T02:33:39.439Z,99266.78
2023-04-27T02:36:05.772Z,99265.25
2023-04-27T02:38:32.209Z,99267.28
2023-04-27T02:40:58.547Z,99269.91
2023-04-27T02:43:25.762Z,99266.88
2023-04-27T02:45:52.145Z,99271.09
2023-04-27T02:48:18.463Z,99266.06
2023-04-27T02:50:44.852Z,99269.16
2023-04-27T02:53:11.242Z,99270.66
2023-04-27T02:55:37.593Z,99271.97
2023-04-27T02:58:03.919Z,99271.97
2023-04-27T03:00:30.287Z,99273.66
2023-04-27T03:02:56.816Z,99273.66
2023-04-27T03:05:23.323Z,99277.56
2023-04-27T03:07:49.722Z,99279.97
2023-04-27T03:10:16.083Z,99280.88
2023-04-27T03:12:42.728Z,99279.69
2023-04-27T03:15:09.120Z,99277.31
2023-04-27T03:17:36.043Z,99280.84
2023-04-27T03:20:02.579Z,99285.66
2023-04-27T03:22:29.180Z,99286.88
2023-04-27T03:24:55.702Z,99295.22
2023-04-27T03:27:22.116Z,99286.44
2023-04-27T03:29:49.958Z,99289.94
2023-04-27T03:32:16.352Z,99292.88
2023-04-27T03:34:42.731Z,99297.88
2023-04-27T03:37:09.276Z,99295.06
2023-04-27T03:39:36.701Z,99297.63
2023-04-27T03:42:03.169Z,99299.56
2023-04-27T03:44:30.105Z,99294.59
2023-04-27T03:46:56.630Z,99300.75
2023-04-27T03:49:23.172Z,99304.94
2023-04-27T03:51:50.066Z,99307.84
2023-04-27T03:54:16.437Z,99301.28
2023-04-27T03:56:42.936Z,99304.31
2023-04-27T03:59:09.442Z,99303.38
2023-04-27T04:01:36.971Z,99309.53
2023-04-27T04:04:03.580Z,99317.88
2023-04-27T04:06:31.497Z,99323.00
2023-04-27T04:08:57.964Z,99326.13
2023-04-27T04:11:24.574Z,99324.25
2023-04-27T04:13:56.088Z,99320.47
2023-04-27T04:16:22.578Z,99326.72
2023-04-27T04:18:49.086Z,99335.22
2023-04-27T04:21:15.936Z,99328.31
2023-04-27T04:23:42.440Z,99333.28
2023-04-27T04:26:08.864Z,99335.16
2023-04-27T04:28:35.670Z,99341.56
2023-04-27T04:31:02.274Z,99338.94
2023-04-27T04:33:28.798Z,99341.47
2023-04-27T04:35:55.673Z,99341.84
2023-04-27T04:38:22.319Z,99345.75
2023-04-27T04:40:49.227Z,99347.63
2023-04-27T04:43:15.882Z,99344.34
2023-04-27T04:45:42.344Z,99350.38
2023-04-27T04:48:09.050Z,99347.16
2023-04-27T04:50:35.787Z,99351.22
2023-04-27T04:53:02.376Z,99349.53
2023-04-27T04:55:28.864Z,99355.75
2023-04-27T04:57:55.355Z,99355.94
2023-04-27T05:00:21.785Z,99350.84
2023-04-27T05:02:48.332Z,99361.69
2023-04-27T05:05:14.932Z,99358.84
2023-04-27T05:07:41.329Z,99363.69
2023-04-27T05:10:07.812Z,99369.09
2023-04-27T05:12:34.336Z,99364.28
2023-04-27T05:15:00.934Z,99367.72
2023-04-27T05:17:27.456Z,99375.97
2023-04-27T05:19:53.940Z,99381.25
2023-04-27T05:22:20.450Z,99377.00
2023-04-27T05:24:46.867Z,99380.31
2023-04-27T05:27:13.488Z,99375.84
2023-04-27T05:29:39.895Z,99381.75
2023-04-27T05:32:06.370Z,99387.81
2023-04-27T05:34:33.106Z,99391.22
2023-04-27T05:36:59.570Z,99384.66
2023-04-27T05:39:25.962Z,99390.91
2023-04-27T05:41:52.533Z,99389.03
2023-04-27T05:44:18.967Z,99393.66
2023-04-27T05:46:45.350Z,99390.22
2023-04-27T05:49:12.054Z,99397.41
2023-04-27T05:51:38.646Z,99399.75
2023-04-27T05:54:05.110Z,99396.66
2023-04-27T05:56:31.607Z,99401.75
2023-04-27T05:58:58.736Z,99404.25
2023-04-27T06:01:26.369Z,99406.78
2023-04-27T06:03:53.027Z,99411.13
2023-04-27T06:06:19.608Z,99411.97
2023-04-27T06:08:46.006Z,99406.16
2023-04-27T06:11:12.550Z,99409.09
2023-04-27T06:13:38.890Z,99411.38
2023-04-27T06:16:05.285Z,99409.81
2023-04-27T06:18:31.829Z,99406.13
2023-04-27T06:20:58.217Z,99405.81
2023-04-27T06:23:24.564Z,99405.00
2023-04-27T06:25:51.458Z,99404.53
2023-04-27T06:28:17.862Z,99407.50
2023-04-27T06:30:44.200Z,99409.47
2023-04-27T06:33:10.645Z,99415.06
2023-04-27T06:35:37.100Z,99414.59
2023-04-27T06:38:04.759Z,99420.78
2023-04-27T06:40:32.377Z,99415.38
2023-04-27T06:42:58.840Z,99429.31
2023-04-27T06:45:25.231Z,99427.63
2023-04-27T06:47:51.745Z,99437.72
2023-04-27T06:50:18.160Z,99429.50
2023-04-27T06:52:44.556Z,99421.16
2023-04-27T06:55:10.997Z,99422.66
2023-04-27T06:57:37.378Z,99426.44
2023-04-27T07:00:03.747Z,99423.03
2023-04-27T07:02:30.227Z,99424.28
2023-04-27T07:04:56.661Z,99425.66
2023-04-27T07:07:23.106Z,99417.53
2023-04-27T07:09:49.503Z,99423.59
2023-04-27T07:12:15.868Z,99427.19
2023-04-27T07:14:42.210Z,99427.25
2023-04-27T07:17:08.644Z,99419.97
2023-04-27T07:19:35.040Z,99422.13
2023-04-27T07:22:01.607Z,99418.44
2023-04-27T07:24:28.083Z,99417.13
2023-04-27T07:26:54.481Z,99422.72
2023-04-27T07:29:27.088Z,99422.34
2023-04-27T07:31:53.910Z,99412.03
2023-04-27T07:34:20.366Z,99412.66
2023-04-27T07:36:46.785Z,99406.28
2023-04-27T07:39:13.428Z,99411.75
2023-04-27T07:41:39.910Z,99413.69
2023-04-27T07:44:06.295Z,99413.22
2023-04-27T07:46:32.754Z,99419.38
2023-04-27T07:48:59.329Z,99424.94
2023-04-27T07:51:25.779Z,99420.56
2023-04-27T07:53:52.204Z,99415.94
2023-04-27T07:56:18.570Z,99424.19
2023-04-27T07:58:44.925Z,99414.00
2023-04-27T08:01:11.315Z,99419.84
2023-04-27T08:03:38.109Z,99414.38
2023-04-27T08:06:05.048Z,99413.03
2023-04-27T08:08:31.828Z,99419.31
2023-04-27T08:10:58.142Z,99419.81
2023-04-27T08:13:25.553Z,99416.34
2023-04-27T08:15:52.066Z,99416.84
2023-04-27T08:18:18.476Z,99418.78
2023-04-27T08:20:44.827Z,99417.81
2023-04-27T08:23:11.270Z,99413.81
2023-04-27T08:25:37.653Z,99410.44
2023-04-27T08:28:04.023Z,99412.44
2023-04-27T08:30:30.454Z,99410.97
2023-04-27T08:32:56.894Z,99415.06
2023-04-27T08:35:23.326Z,99417.09
2023-04-27T08:37:49.736Z,99412.16
2023-04-27T08:40:16.127Z,99414.13
2023-04-27T08:42:42.480Z,99414.66
2023-04-27T08:45:08.950Z,99416.66
2023-04-27T08:47:42.626Z,99418.94
2023-04-27T08:50:10.116Z,99424.00
2023-04-27T08:52:36.678Z,99420.94
2023-04-27T08:55:03.142Z,99418.75
2023-04-27T08:57:29.550Z,99420.25
2023-04-27T08:59:55.944Z,99418.63
2023-04-27T09:02:22.380Z,99426.22
2023-04-27T09:04:49.007Z,99423.00
2023-04-27T09:07:15.550Z,99426.06
2023-04-27T09:09:41.901Z,99434.28
2023-04-27T09:12:08.328Z,99427.84
2023-04-27T09:14:34.666Z,99421.56
2023-04-27T09:17:01.038Z,99423.88
2023-04-27T09:19:27.467Z,99425.63
2023-04-27T09:21:53.828Z,99413.59
2023-04-27T09:24:20.198Z,99429.59
2023-04-27T09:26:46.642Z,99428.06
2023-04-27T09:29:13.296Z,99426.75
2023-04-27T09:31:39.880Z,99418.47
2023-04-27T09:34:06.370Z,99423.91
2023-04-27T09:36:32.791Z,99415.84
2023-04-27T09:38:59.199Z,99415.63
2023-04-27T09:41:25.659Z,99426.56
2023-04-27T09:43:52.022Z,99427.94
2023-04-27T09:46:18.440Z,99419.56
2023-04-27T09:48:44.955Z,99427.78
2023-04-27T09:51:11.355Z,99418.41
2023-04-27T09:53:37.749Z,99430.53
2023-04-27T09:56:04.174Z,99421.44
2023-04-27T09:58:30.524Z,99422.34
2023-04-27T10:00:56.991Z,99420.56
2023-04-27T10:03:23.549Z,99429.97
2023-04-27T10:05:50.042Z,99415.22
2023-04-27T10:08:16.475Z,99416.75
2023-04-27T10:10:42.918Z,99408.25
2023-04-27T10:13:09.310Z,99420.19
2023-04-27T10:15:35.703Z,99411.13
2023-04-27T10:18:02.185Z,99414.25
2023-04-27T10:20:28.536Z,99416.94
2023-04-27T10:22:54.961Z,99414.91
2023-04-27T10:25:21.366Z,99418.59
2023-04-27T10:27:47.714Z,99409.59
2023-04-27T10:30:14.144Z,99411.03
2023-04-27T10:32:40.602Z,99412.09
2023-04-27T10:35:06.972Z,99385.78
2023-04-27T10:37:33.438Z,99405.97
2023-04-27T10:40:00.221Z,99417.72
2023-04-27T10:42:26.591Z,99412.09
2023-04-27T10:44:53.094Z,99413.16
2023-04-27T10:47:19.714Z,99413.81
2023-04-27T10:49:46.174Z,99417.50
2023-04-27T10:52:12.508Z,99412.00
2023-04-27T10:54:38.913Z,99418.31
2023-04-27T10:57:05.296Z,99418.03
2023-04-27T10:59:31.660Z,99417.00
2023-04-27T11:01:58.118Z,99415.53
2023-04-27T11:04:24.532Z,99413.03
2023-04-27T11:06:50.899Z,99417.53
2023-04-27T11:09:17.333Z,99411.13
2023-04-27T11:11:43.730Z,99414.63
2023-04-27T11:14:10.087Z,99412.25
2023-04-27T11:16:36.512Z,99405.50
2023-04-27T11:19:02.925Z,99408.63
2023-04-27T11:21:29.272Z,99405.06
2023-04-27T11:23:55.665Z,99403.47
2023-04-27T11:26:22.170Z,99409.34
2023-04-27T11:28:48.542Z,99409.00
2023-04-27T11:31:15.010Z,99407.88
2023-04-27T11:33:41.371Z,99403.59
2023-04-27T11:36:07.717Z,99406.72
2023-04-27T11:38:34.210Z,99400.09
2023-04-27T11:41:00.656Z,99406.84
2023-04-27T11:43:27.034Z,99395.44
2023-04-27T11:45:53.428Z,99399.00
2023-04-27T11:48:19.976Z,99401.78
2023-04-27T11:50:46.402Z,99398.84
2023-04-27T11:53:12.850Z,99396.38
2023-04-27T11:55:39.217Z,99396.91
2023-04-27T11:58:05.611Z,99404.69
2023-04-27T12:00:32.017Z,99400.94
2023-04-27T12:02:58.488Z,99401.75
2023-04-27T12:05:25.188Z,99398.44
2023-04-27T12:07:51.715Z,99402.56
2023-04-27T12:10:18.086Z,99403.63
2023-04-27T12:12:44.470Z,99390.25
2023-04-27T12:15:10.918Z,99397.72
2023-04-27T12:17:37.377Z,99398.75
2023-04-27T12:20:03.816Z,99394.97
2023-04-27T12:22:30.256Z,99394.94
2023-04-27T12:24:56.607Z,99393.06
2023-04-27T12:27:22.941Z,99396.03
2023-04-27T12:29:49.335Z,99397.94
2023-04-27T12:32:15.711Z,99395.63
2023-04-27T12:34:42.058Z,99404.50
2023-04-27T12:37:08.427Z,99399.88
2023-04-27T12:39:34.852Z,99404.41
2023-04-27T12:42:01.170Z,99407.00
2023-04-27T12:44:27.571Z,99403.97
2023-04-27T12:46:54.118Z,99399.06
2023-04-27T12:49:20.548Z,99395.78
2023-04-27T12:51:46.949Z,99398.63
2023-04-27T12:54:13.363Z,99400.69
2023-04-27T12:56:39.936Z,99403.44
2023-04-27T12:59:06.388Z,99397.75
2023-04-27T13:01:32.819Z,99393.91
2023-04-27T13:03:59.369Z,99392.00
2023-04-27T13:06:25.929Z,99388.88
2023-04-27T13:08:52.241Z,99389.31
2023-04-27T13:11:18.598Z,99389.75
2023-04-27T13:13:44.982Z,99384.34
2023-04-27T13:16:11.412Z,99386.00
2023-04-27T13:18:37.785Z,99386.91
2023-04-27T13:21:04.183Z,99389.38
2023-04-27T13:23:30.558Z,99392.66
2023-04-27T13:25:56.920Z,99384.13
2023-04-27T13:28:23.327Z,99382.38
2023-04-27T13:30:49.663Z,99398.59
2023-04-27T13:33:23.114Z,99392.91
2023-04-27T13:35:50.133Z,99388.44
2023-04-27T13:38:16.507Z,99400.44
2023-04-27T13:40:42.881Z,99395.34
2023-04-27T13:43:09.303Z,99399.31
2023-04-27T13:45:35.662Z,99402.88
2023-04-27T13:48:02.225Z,99395.84
2023-04-27T13:50:28.864Z,99400.22
2023-04-27T13:52:55.210Z,99397.09
2023-04-27T13:55:21.582Z,99396.75
2023-04-27T13:57:48.043Z,99400.28
2023-04-27T14:00:14.452Z,99400.75
2023-04-27T14:02:40.935Z,99399.91
2023-04-27T14:05:07.433Z,99403.13
2023-04-27T14:07:33.785Z,99405.53
2023-04-27T14:10:00.162Z,99404.72
2023-04-27T14:12:26.627Z,99407.13
2023-04-27T14:14:53.066Z,99410.31
2023-04-27T14:17:19.411Z,99405.59
2023-04-27T14:19:45.941Z,99400.09
2023-04-27T14:22:12.327Z,99399.72
2023-04-27T14:24:38.719Z,99398.91
2023-04-27T14:27:05.116Z,99406.47
2023-04-27T14:29:31.532Z,99411.84
2023-04-27T14:31:57.992Z,99409.28
2023-04-27T14:34:24.429Z,99410.66
2023-04-27T14:36:50.811Z,99408.56
2023-04-27T14:39:17.236Z,99408.19
2023-04-27T14:41:43.672Z,99401.16
2023-04-27T14:44:10.039Z,99402.31
2023-04-27T14:46:36.450Z,99396.81
2023-04-27T14:49:02.910Z,99401.53
2023-04-27T14:51:29.286Z,99405.44
2023-04-27T14:53:55.658Z,99403.06
2023-04-27T14:56:22.155Z,99403.91
2023-04-27T14:58:48.497Z,99408.63
2023-04-27T15:01:14.905Z,99416.13
2023-04-27T15:03:41.630Z,99405.88
2023-04-27T15:06:08.272Z,99408.63
2023-04-27T15:08:34.640Z,99412.56
2023-04-27T15:11:01.283Z,99412.03
2023-04-27T15:13:27.742Z,99414.81
2023-04-27T15:15:54.197Z,99409.28
2023-04-27T15:18:20.747Z,99408.13
2023-04-27T15:20:47.177Z,99410.81
2023-04-27T15:23:13.605Z,99410.28
2023-04-27T15:25:39.993Z,99410.00
2023-04-27T15:28:06.376Z,99405.22
2023-04-27T15:30:32.771Z,99409.13
2023-04-27T15:32:59.473Z,99398.47
2023-04-27T15:35:25.856Z,99402.66
2023-04-27T15:37:52.163Z,99407.47
2023-04-27T15:40:18.604Z,99405.75
2023-04-27T15:42:44.958Z,99405.75
2023-04-27T15:45:11.327Z,99405.75
2023-04-27T15:47:37.823Z,99399.38
2023-04-27T15:50:04.317Z,99413.16
2023-04-27T15:52:30.677Z,99414.34
2023-04-27T15:54:57.131Z,99407.94
2023-04-27T15:57:23.534Z,99408.31
2023-04-27T15:59:49.909Z,99411.06
2023-04-27T16:02:16.465Z,99404.84
2023-04-27T16:04:42.906Z,99405.53
2023-04-27T16:07:09.320Z,99399.31
2023-04-27T16:09:35.838Z,99413.78
2023-04-27T16:12:02.228Z,99403.16
2023-04-27T16:14:28.635Z,99406.63
2023-04-27T16:16:55.093Z,99412.91
2023-04-27T16:19:21.492Z,99407.75
2023-04-27T16:21:47.828Z,99413.63
2023-04-27T16:24:14.259Z,99401.03
2023-04-27T16:26:40.673Z,99399.41
2023-04-27T16:29:07.027Z,99414.34
2023-04-27T16:31:33.438Z,99410.78
2023-04-27T16:33:59.911Z,99412.75
2023-04-27T16:36:26.312Z,99411.13
2023-04-27T16:38:52.753Z,99408.31
2023-04-27T16:41:19.082Z,99407.06
2023-04-27T16:43:45.429Z,99409.38
2023-04-27T16:46:11.950Z,99408.94
2023-04-27T16:48:38.389Z,99413.53
2023-04-27T16:51:05.063Z,99409.19
2023-04-27T16:53:31.504Z,99413.91
2023-04-27T16:55:58.018Z,99409.13
2023-04-27T16:58:24.388Z,99397.56
2023-04-27T17:00:50.818Z,99406.72
2023-04-27T17:03:17.327Z,99405.13
2023-04-27T17:05:43.663Z,99403.06
2023-04-27T17:08:10.077Z,99404.25
2023-04-27T17:10:36.496Z,99416.75
2023-04-27T17:13:03.059Z,99408.84
2023-04-27T17:15:29.498Z,99422.97
2023-04-27T17:17:56.113Z,99420.56
2023-04-27T17:20:22.494Z,99424.41
2023-04-27T17:22:48.924Z,99424.28
2023-04-27T17:25:15.318Z,99426.16
2023-04-27T17:27:41.762Z,99424.09
2023-04-27T17:30:08.406Z,99424.34
2023-04-27T17:32:34.881Z,99427.03
2023-04-27T17:35:01.270Z,99424.97
2023-04-27T17:37:27.660Z,99430.03
2023-04-27T17:39:54.052Z,99424.41
2023-04-27T17:42:20.436Z,99427.84
2023-04-27T17:44:46.909Z,99426.59
2023-04-27T17:47:13.226Z,99433.59
2023-04-27T17:49:39.548Z,99438.22
2023-04-27T17:52:05.926Z,99434.59
2023-04-27T17:54:32.247Z,99425.41
2023-04-27T17:56:58.584Z,99425.31
2023-04-27T17:59:24.974Z,99430.72
2023-04-27T18:01:51.371Z,99438.06
2023-04-27T18:04:17.883Z,99442.66
2023-04-27T18:06:44.331Z,99437.88
2023-04-27T18:09:10.658Z,99445.22
2023-04-27T18:11:36.988Z,99442.72
2023-04-27T18:14:03.418Z,99444.53
2023-04-27T18:16:29.833Z,99437.34
2023-04-27T18:18:56.220Z,99432.47
2023-04-27T18:21:22.705Z,99439.78
2023-04-27T18:23:49.094Z,99439.69
2023-04-27T18:26:15.402Z,99440.66
2023-04-27T18:28:41.811Z,99445.63
2023-04-27T18:31:08.249Z,99444.69
2023-04-27T18:33:34.577Z,99433.50
2023-04-27T18:36:00.923Z,99443.13
2023-04-27T18:38:27.254Z,99446.22
2023-04-27T18:40:53.562Z,99448.84
2023-04-27T18:43:19.947Z,99445.53
2023-04-27T18:45:46.304Z,99450.81
2023-04-27T18:48:12.637Z,99447.25
2023-04-27T18:50:39.007Z,99454.09
2023-04-27T18:53:05.324Z,99452.50
2023-04-27T18:55:31.638Z,99455.72
2023-04-27T18:57:58.002Z,99462.59
2023-04-27T19:00:24.325Z,99464.41
2023-04-27T19:02:50.746Z,99461.88
2023-04-27T19:05:17.346Z,99464.50
2023-04-27T19:07:43.736Z,99468.25
2023-04-27T19:10:10.061Z,99467.66
2023-04-27T19:12:36.403Z,99467.88
2023-04-27T19:15:02.728Z,99469.22
2023-04-27T19:17:29.247Z,99464.03
2023-04-27T19:19:55.746Z,99471.25
2023-04-27T19:22:22.094Z,99472.94
2023-04-27T19:24:48.412Z,99472.69
2023-04-27T19:27:14.817Z,99473.69
2023-04-27T19:29:41.132Z,99474.25
2023-04-27T19:32:07.451Z,99473.78
2023-04-27T19:34:33.830Z,99474.31
2023-04-27T19:37:00.161Z,99467.94
2023-04-27T19:39:26.477Z,99472.81
2023-04-27T19:41:52.830Z,99482.69
2023-04-27T19:44:19.139Z,99474.63
2023-04-27T19:46:45.621Z,99481.44
2023-04-27T19:49:12.049Z,99486.69
2023-04-27T19:51:38.359Z,99481.91
2023-04-27T19:54:04.672Z,99484.97
2023-04-27T19:56:31.129Z,99484.72
2023-04-27T19:58:57.528Z,99486.34
2023-04-27T20:01:23.954Z,99478.53
2023-04-27T20:03:50.475Z,99490.94
2023-04-27T20:06:16.965Z,99482.91
2023-04-27T20:08:43.285Z,99479.91
2023-04-27T20:11:09.660Z,99485.56
2023-04-27T20:13:36.028Z,99484.13
2023-04-27T20:16:02.450Z,99483.34
2023-04-27T20:18:28.859Z,99489.81
2023-04-27T20:20:55.205Z,99494.66
2023-04-27T20:23:21.521Z,99498.72
2023-04-27T20:25:47.915Z,99499.53
2023-04-27T20:28:14.252Z,99501.94
2023-04-27T20:30:40.560Z,99504.06
2023-04-27T20:33:07.093Z,99511.66
2023-04-27T20:35:33.594Z,99505.56
2023-04-27T20:37:59.920Z,99511.03
2023-04-27T20:40:26.270Z,99508.47
2023-04-27T20:42:52.592Z,99508.63
2023-04-27T20:45:18.891Z,99505.56
2023-04-27T20:47:45.291Z,99514.28
2023-04-27T20:50:11.661Z,99510.09
2023-04-27T20:52:38.002Z,99512.44
2023-04-27T20:55:04.400Z,99515.81
2023-04-27T20:57:30.732Z,99508.91
2023-04-27T20:59:57.072Z,99511.31
2023-04-27T21:02:23.469Z,99514.84
2023-04-27T21:04:49.909Z,99509.03
2023-04-27T21:07:16.261Z,99506.63
2023-04-27T21:09:42.672Z,99510.97
2023-04-27T21:12:09.084Z,99514.66
2023-04-27T21:14:35.403Z,99511.78
2023-04-27T21:17:01.882Z,99514.66
2023-04-27T21:19:28.254Z,99510.13
2023-04-27T21:21:54.583Z,99512.03
2023-04-27T21:24:21.059Z,99503.50
2023-04-27T21:26:47.563Z,99508.34
2023-04-27T21:29:13.966Z,99516.66
2023-04-27T21:31:40.409Z,99518.72
2023-04-27T21:34:06.764Z,99523.50
2023-04-27T21:36:33.133Z,99520.59
2023-04-27T21:38:59.549Z,99517.97
2023-04-27T21:41:25.895Z,99518.94
2023-04-27T21:43:52.210Z,99526.47
2023-04-27T21:46:18.671Z,99516.81
2023-04-27T21:48:45.040Z,99510.66
2023-04-27T21:51:11.369Z,99515.13
2023-04-27T21:53:37.694Z,99514.47
2023-04-27T21:56:04.066Z,99520.06
2023-04-27T21:58:30.418Z,99509.28
2023-04-27T22:00:56.758Z,99514.06
2023-04-27T22:03:23.308Z,99511.44
2023-04-27T22:05:49.739Z,99517.03
2023-04-27T22:08:16.094Z,99511.72
2023-04-27T22:10:42.431Z,99512.34
2023-04-27T22:13:18.756Z,99516.81
2023-04-27T22:15:45.581Z,99515.00
2023-04-27T22:18:11.895Z,99516.25
2023-04-27T22:20:38.205Z,99518.28
2023-04-27T22:23:04.621Z,99519.81
2023-04-27T22:25:30.921Z,99523.44
2023-04-27T22:27:57.236Z,99514.56
2023-04-27T22:30:23.630Z,99510.34
2023-04-27T22:32:50.007Z,99509.03
2023-04-27T22:35:25.744Z,99510.00
2023-04-27T22:37:53.819Z,99508.69
2023-04-27T22:40:20.127Z,99514.75
2023-04-27T22:42:46.419Z,99515.13
2023-04-27T22:45:12.865Z,99517.16
2023-04-27T22:47:39.218Z,99514.56
2023-04-27T22:50:05.554Z,99516.59
2023-04-27T22:52:31.910Z,99519.94
2023-04-27T22:54:58.222Z,99511.34
2023-04-27T22:57:24.568Z,99522.03
2023-04-27T22:59:50.956Z,99518.63
2023-04-27T23:02:17.385Z,99515.69
2023-04-27T23:04:43.756Z,99518.50
2023-04-27T23:07:10.235Z,99521.56
2023-04-27T23:09:36.606Z,99510.56
2023-04-27T23:12:02.922Z,99506.03
2023-04-27T23:14:29.260Z,99505.63
2023-04-27T23:16:55.613Z,99501.09
2023-04-27T23:19:21.967Z,99503.88
2023-04-27T23:21:48.322Z,99507.22
2023-04-27T23:24:14.838Z,99503.19
2023-04-27T23:26:41.358Z,99508.69
2023-04-27T23:29:07.742Z,99507.69
2023-04-27T23:31:34.246Z,99506.66
2023-04-27T23:34:00.624Z,99506.97
2023-04-27T23:36:26.985Z,99502.44
2023-04-27T23:38:53.281Z,99501.22
2023-04-27T23:41:19.593Z,99501.22
2023-04-27T23:43:45.995Z,99497.78
2023-04-27T23:46:12.429Z,99508.44
2023-04-27T23:48:38.790Z,99508.03
2023-04-27T23:51:05.177Z,99505.59
2023-04-27T23:53:31.530Z,99501.06
2023-04-27T23:55:57.852Z,99502.25
2023-04-27T23:58:24.307Z,99500.13
